Archer, Idaho
Current Conditions -  °F | °C
As of 8:53 PM on Wednesday 17 Dec 2014 (Local Time) from KRXE Reporting Station
Overcast Overcast  
Wind Chill: -2°   Ceiling: 4900
Heat Index: -2°   Visibility: 10mi
Dew Point: -3°   Wind: 0mph
Humidity: 92%   Direction: NA
Pressure: 30.03"   Gusts: NA
Location:  43.7568°N, 111.624°W
Report Text: KRXE 180353Z AUTO 00000KT 10SM OVC049 M02/M03 A3003 RMK AO2 SLP196 T10171028
Loading
Personal Weather Stations






























Interactive Weather Map New forecast layout! Learn more

10-Day Weather Forecast

Advertisements
Track Severe Weather on mobile